Terminal Aerodrome Forecast
Issued by NWS

Home | Current Version | Previous Version | Text Only | Print | Product List | Glossary On
Versions: 1 2 3 4 5 6 7 8 9 10 11 12 13 14 15 16 17
122
FTUS43 KDLH 191751
TAFHYR
TAF
KHYR 191751Z 1918/2018 12006KT P6SM FEW110 BKN250
     FM200300 14008KT P6SM OVC110 WS020/19035KT
     FM200700 14010KT P6SM SCT035 OVC110 WS020/20045KT
     FM201400 14012KT P6SM SCT030 BKN050 OVC080 WS020/20040KT
     FM201600 15012G18KT 6SM -SHRA SCT025 BKN035 OVC060=

USA.gov is the U.S. government's official web portal to all federal, state and local government web resources and services.